createdAt,value
2018-06-19T00:01:12.037Z,18.60
2018-06-19T00:03:39.029Z,18.60
2018-06-19T00:06:05.761Z,18.60
2018-06-19T00:08:32.813Z,18.60
2018-06-19T00:10:59.553Z,18.60
2018-06-19T00:13:26.924Z,18.60
2018-06-19T00:15:53.761Z,18.60
2018-06-19T00:18:20.605Z,18.50
2018-06-19T00:20:47.541Z,18.50
2018-06-19T00:25:41.709Z,18.50
2018-06-19T00:28:09.208Z,18.50
2018-06-19T00:30:36.348Z,18.50
2018-06-19T00:33:03.679Z,18.40
2018-06-19T00:35:30.660Z,18.40
2018-06-19T00:37:57.388Z,18.40
2018-06-19T00:40:24.144Z,18.40
2018-06-19T00:42:51.018Z,18.40
2018-06-19T00:45:19.172Z,18.40
2018-06-19T00:47:47.224Z,18.40
2018-06-19T00:52:46.611Z,18.30
2018-06-19T00:55:13.453Z,18.40
2018-06-19T00:57:40.329Z,18.30
2018-06-19T01:00:07.814Z,18.30
2018-06-19T01:05:01.590Z,18.30
2018-06-19T01:07:28.343Z,18.30
2018-06-19T01:09:55.056Z,18.30
2018-06-19T01:12:21.707Z,18.20
2018-06-19T01:17:15.767Z,18.30
2018-06-19T01:19:42.511Z,18.20
2018-06-19T01:22:09.416Z,18.20
2018-06-19T01:24:36.846Z,18.20
2018-06-19T01:27:03.821Z,18.20
2018-06-19T01:29:31.593Z,18.20
2018-06-19T01:31:58.433Z,18.20
2018-06-19T01:34:25.221Z,18.20
2018-06-19T01:36:52.007Z,18.20
2018-06-19T01:39:18.871Z,18.20
2018-06-19T01:41:45.581Z,18.20
2018-06-19T01:44:12.418Z,18.10
2018-06-19T01:46:39.134Z,18.10
2018-06-19T01:49:05.935Z,18.10
2018-06-19T01:51:32.883Z,18.10
2018-06-19T01:53:59.689Z,18.10
2018-06-19T01:56:26.595Z,18.10
2018-06-19T01:58:53.663Z,18.10
2018-06-19T02:01:20.503Z,18.10
2018-06-19T02:03:47.289Z,18.10
2018-06-19T02:06:14.064Z,18.10
2018-06-19T02:08:40.923Z,18.10
2018-06-19T02:11:07.750Z,18.10
2018-06-19T02:13:35.494Z,18.00
2018-06-19T02:16:02.244Z,18.10
2018-06-19T02:18:28.936Z,18.00
2018-06-19T02:20:55.675Z,18.10
2018-06-19T02:23:22.676Z,18.00
2018-06-19T02:25:49.488Z,18.00
2018-06-19T02:28:16.990Z,18.10
2018-06-19T02:30:43.658Z,18.10
2018-06-19T02:33:11.020Z,18.00
2018-06-19T02:35:39.076Z,18.00
2018-06-19T02:38:05.932Z,17.90
2018-06-19T02:40:32.672Z,18.10
2018-06-19T02:42:59.386Z,18.00
2018-06-19T02:45:26.122Z,18.10
2018-06-19T02:47:53.575Z,18.10
2018-06-19T02:50:20.305Z,18.00
2018-06-19T02:52:47.128Z,18.00
2018-06-19T02:55:13.848Z,18.00
2018-06-19T02:57:40.648Z,18.00
2018-06-19T03:00:07.546Z,18.00
2018-06-19T03:02:34.708Z,18.00
2018-06-19T03:05:02.412Z,18.00
2018-06-19T03:07:30.824Z,18.00
2018-06-19T03:09:57.626Z,18.00
2018-06-19T03:14:51.871Z,18.00
2018-06-19T03:17:19.581Z,18.00
2018-06-19T03:22:13.635Z,18.00
2018-06-19T03:24:40.377Z,18.00
2018-06-19T03:27:07.295Z,18.00
2018-06-19T03:29:34.287Z,18.00
2018-06-19T03:32:01.200Z,18.00
2018-06-19T03:34:28.273Z,18.00
2018-06-19T03:36:55.157Z,18.00
2018-06-19T03:39:22.660Z,18.00
2018-06-19T03:41:49.594Z,18.00
2018-06-19T03:44:17.115Z,18.00
2018-06-19T03:46:43.989Z,18.00
2018-06-19T03:49:10.771Z,18.00
2018-06-19T03:51:37.843Z,18.00
2018-06-19T03:56:32.022Z,18.00
2018-06-19T03:58:58.710Z,18.00
2018-06-19T04:01:25.526Z,18.00
2018-06-19T04:03:52.219Z,18.00
2018-06-19T04:06:19.004Z,17.90
2018-06-19T04:08:45.755Z,18.00
2018-06-19T04:11:12.536Z,18.00
2018-06-19T04:13:39.552Z,18.00
2018-06-19T04:18:38.218Z,18.00
2018-06-19T04:21:08.006Z,18.00
2018-06-19T04:23:34.842Z,18.00
2018-06-19T04:26:02.740Z,18.00
2018-06-19T04:28:29.664Z,18.00
2018-06-19T04:30:56.508Z,18.00
2018-06-19T04:33:24.260Z,18.00
2018-06-19T04:35:51.320Z,18.00
2018-06-19T04:38:20.451Z,18.00
2018-06-19T04:40:47.236Z,18.00
2018-06-19T04:43:13.948Z,17.90
2018-06-19T04:45:40.678Z,18.00
2018-06-19T04:48:07.549Z,18.00
2018-06-19T04:50:34.298Z,18.00
2018-06-19T04:53:01.102Z,18.10
2018-06-19T04:55:29.948Z,18.00
2018-06-19T05:00:24.298Z,18.00
2018-06-19T05:02:51.220Z,18.00
2018-06-19T05:05:18.105Z,18.10
2018-06-19T05:07:44.930Z,18.10
2018-06-19T05:10:11.745Z,18.10
2018-06-19T05:12:38.499Z,18.10
2018-06-19T05:15:05.287Z,18.10
2018-06-19T05:17:32.095Z,18.10
2018-06-19T05:19:58.929Z,18.10
2018-06-19T05:22:25.731Z,18.30
2018-06-19T05:27:19.839Z,18.10
2018-06-19T05:29:47.125Z,18.10
2018-06-19T05:32:14.274Z,18.10
2018-06-19T05:34:42.499Z,18.10
2018-06-19T05:37:09.307Z,18.10
2018-06-19T05:39:36.163Z,18.10
2018-06-19T05:42:02.963Z,18.20
2018-06-19T05:44:29.767Z,18.20
2018-06-19T05:46:56.653Z,18.20
2018-06-19T05:49:23.358Z,18.20
2018-06-19T05:51:50.166Z,18.20
2018-06-19T05:54:17.838Z,18.10
2018-06-19T05:56:44.871Z,18.20
2018-06-19T05:59:11.624Z,18.20
2018-06-19T06:01:38.462Z,18.20
2018-06-19T06:04:05.890Z,18.20
2018-06-19T06:06:32.679Z,18.20
2018-06-19T06:08:59.485Z,18.20
2018-06-19T06:11:26.313Z,18.20
2018-06-19T06:13:53.115Z,18.20
2018-06-19T06:16:19.870Z,18.20
2018-06-19T06:18:46.893Z,18.20
2018-06-19T06:21:13.664Z,18.20
2018-06-19T06:23:40.540Z,18.30
2018-06-19T06:26:07.316Z,18.30
2018-06-19T06:28:34.111Z,18.30
2018-06-19T06:31:00.937Z,18.30
2018-06-19T06:33:27.710Z,18.30
2018-06-19T06:35:54.423Z,18.30
2018-06-19T06:38:21.204Z,18.30
2018-06-19T06:40:47.934Z,18.30
2018-06-19T06:43:14.759Z,18.30
2018-06-19T06:45:41.645Z,18.30
2018-06-19T06:48:08.419Z,18.40
2018-06-19T06:50:35.247Z,18.40
2018-06-19T06:53:01.797Z,18.40
2018-06-19T06:55:28.655Z,18.40
2018-06-19T06:57:55.490Z,18.40
2018-06-19T07:00:22.237Z,18.40
2018-06-19T07:02:49.080Z,18.40
2018-06-19T07:05:15.850Z,18.50
2018-06-19T07:07:42.587Z,18.50
2018-06-19T07:10:09.404Z,18.50
2018-06-19T07:12:36.167Z,18.60
2018-06-19T07:15:02.868Z,18.50
2018-06-19T07:17:29.698Z,18.50
2018-06-19T07:20:00.160Z,18.50
2018-06-19T07:22:29.228Z,18.60
2018-06-19T07:24:56.122Z,18.60
2018-06-19T07:27:23.170Z,18.60
2018-06-19T07:29:49.919Z,18.60
2018-06-19T07:32:16.683Z,18.60
2018-06-19T07:34:43.495Z,18.30
2018-06-19T07:37:10.257Z,18.60
2018-06-19T07:39:37.016Z,18.70
2018-06-19T07:42:03.708Z,18.60
2018-06-19T07:44:30.533Z,18.70
2018-06-19T07:46:57.234Z,18.70
2018-06-19T07:49:23.989Z,18.70
2018-06-19T07:51:50.785Z,18.70
2018-06-19T07:54:18.347Z,18.80
2018-06-19T07:56:45.167Z,18.80
2018-06-19T07:59:12.021Z,18.80
2018-06-19T08:01:38.965Z,18.80
2018-06-19T08:04:05.726Z,18.80
2018-06-19T08:06:32.481Z,18.80
2018-06-19T08:08:59.363Z,18.80
2018-06-19T08:13:53.799Z,18.90
2018-06-19T08:16:21.319Z,18.90
2018-06-19T08:18:49.060Z,18.90
2018-06-19T08:21:16.137Z,18.90
2018-06-19T08:23:42.916Z,18.90
2018-06-19T08:26:09.715Z,18.90
2018-06-19T08:28:36.490Z,18.90
2018-06-19T08:31:05.137Z,18.90
2018-06-19T08:33:31.974Z,18.90
2018-06-19T08:35:58.902Z,19.00
2018-06-19T08:38:25.825Z,19.00
2018-06-19T08:40:52.716Z,19.00
2018-06-19T08:43:19.564Z,19.00
2018-06-19T08:45:46.415Z,19.00
2018-06-19T08:48:13.144Z,19.10
2018-06-19T08:50:39.924Z,19.00
2018-06-19T08:53:06.710Z,19.10
2018-06-19T08:55:33.408Z,19.10
2018-06-19T08:58:00.237Z,19.10
2018-06-19T09:00:27.008Z,19.10
2018-06-19T09:02:53.858Z,19.10
2018-06-19T09:05:20.827Z,19.10
2018-06-19T09:07:47.594Z,19.10
2018-06-19T09:10:14.757Z,19.10
2018-06-19T09:12:41.568Z,19.10
2018-06-19T09:15:08.320Z,19.20
2018-06-19T09:17:35.165Z,19.20
2018-06-19T09:20:01.993Z,19.20
2018-06-19T09:22:28.739Z,19.20
2018-06-19T09:24:55.575Z,19.20
2018-06-19T09:27:22.355Z,19.20
2018-06-19T09:29:49.203Z,19.30
2018-06-19T09:34:43.379Z,19.30
2018-06-19T09:37:10.252Z,19.30
2018-06-19T09:39:37.052Z,19.30
2018-06-19T09:42:03.919Z,19.30
2018-06-19T09:44:31.143Z,19.30
2018-06-19T09:46:57.925Z,19.30
2018-06-19T09:49:24.727Z,19.40
2018-06-19T09:51:51.596Z,19.40
2018-06-19T09:54:18.379Z,19.40
2018-06-19T09:56:45.408Z,19.40
2018-06-19T09:59:12.254Z,19.40
2018-06-19T10:01:39.162Z,19.50
2018-06-19T10:04:06.046Z,19.50
2018-06-19T10:06:32.946Z,19.50
2018-06-19T10:08:59.860Z,19.50
2018-06-19T10:11:26.567Z,19.50
2018-06-19T10:13:53.598Z,19.50
2018-06-19T10:16:20.779Z,19.60
2018-06-19T10:18:47.720Z,19.50
2018-06-19T10:21:14.524Z,19.20
2018-06-19T10:23:41.382Z,19.60
2018-06-19T10:26:08.150Z,19.60
2018-06-19T10:28:35.060Z,19.60
2018-06-19T10:31:02.105Z,19.60
2018-06-19T10:33:29.054Z,19.70
2018-06-19T10:35:55.894Z,19.70
2018-06-19T10:38:22.755Z,19.70
2018-06-19T10:40:57.698Z,19.70
2018-06-19T10:43:31.494Z,19.70
2018-06-19T10:46:03.497Z,19.70
2018-06-19T10:48:30.818Z,19.70
2018-06-19T10:50:59.292Z,19.70
2018-06-19T10:53:26.234Z,19.80
2018-06-19T10:55:53.300Z,19.80
2018-06-19T10:58:20.232Z,19.80
2018-06-19T11:00:46.992Z,19.80
2018-06-19T11:03:13.768Z,19.80
2018-06-19T11:05:40.767Z,19.80
2018-06-19T11:08:07.635Z,19.90
2018-06-19T11:10:35.337Z,19.90
2018-06-19T11:13:02.672Z,19.90
2018-06-19T11:15:29.588Z,19.90
2018-06-19T11:17:57.094Z,19.90
2018-06-19T11:20:24.018Z,19.90
2018-06-19T11:22:51.431Z,19.90
2018-06-19T11:27:45.631Z,20.00
2018-06-19T11:30:12.493Z,20.00
2018-06-19T11:32:39.499Z,20.00
2018-06-19T11:35:06.418Z,20.00
2018-06-19T11:37:33.527Z,20.00
2018-06-19T11:40:00.473Z,20.00
2018-06-19T11:42:27.322Z,20.10
2018-06-19T11:44:54.062Z,20.10
2018-06-19T11:47:20.761Z,20.10
2018-06-19T11:49:47.526Z,20.10
2018-06-19T11:54:41.612Z,20.10
2018-06-19T11:57:08.805Z,20.10
2018-06-19T11:59:35.850Z,20.20
2018-06-19T12:02:03.201Z,20.20
2018-06-19T12:04:30.026Z,20.00
2018-06-19T12:06:56.706Z,20.20
2018-06-19T12:09:23.597Z,20.20
2018-06-19T12:11:50.358Z,20.20
2018-06-19T12:14:17.069Z,20.20
2018-06-19T12:16:43.770Z,20.30
2018-06-19T12:19:10.709Z,20.30
2018-06-19T12:21:37.558Z,20.20
2018-06-19T12:24:04.536Z,20.30
2018-06-19T12:26:31.645Z,20.30
2018-06-19T12:28:58.481Z,20.30
2018-06-19T12:31:25.733Z,20.30
2018-06-19T12:33:53.014Z,20.30
2018-06-19T12:36:19.932Z,20.30
2018-06-19T12:38:47.330Z,20.40
2018-06-19T12:41:14.479Z,20.40
2018-06-19T12:43:42.040Z,20.40
2018-06-19T12:46:09.560Z,20.40
2018-06-19T12:48:36.444Z,20.40
2018-06-19T12:51:04.080Z,20.40
2018-06-19T12:53:30.990Z,20.40
2018-06-19T12:55:58.674Z,20.40
2018-06-19T12:58:25.442Z,20.40
2018-06-19T13:00:52.834Z,20.50
2018-06-19T13:03:20.277Z,20.50
2018-06-19T13:05:47.228Z,20.50
2018-06-19T13:08:13.925Z,20.50
2018-06-19T13:10:40.771Z,20.60
2018-06-19T13:13:07.578Z,20.50
2018-06-19T13:15:35.029Z,20.50
2018-06-19T13:18:01.728Z,20.60
2018-06-19T13:20:29.028Z,20.60
2018-06-19T13:22:55.763Z,20.20
2018-06-19T13:25:23.192Z,20.60
2018-06-19T13:27:50.025Z,20.60
2018-06-19T13:30:16.877Z,20.60
2018-06-19T13:32:43.685Z,20.60
2018-06-19T13:35:10.513Z,20.60
2018-06-19T13:37:37.361Z,20.60
2018-06-19T13:40:04.125Z,20.70
2018-06-19T13:42:31.548Z,20.70
2018-06-19T13:45:01.996Z,20.70
2018-06-19T13:47:32.281Z,20.70
2018-06-19T13:50:00.339Z,20.70
2018-06-19T13:52:28.764Z,20.70
2018-06-19T13:57:55.123Z,20.70
2018-06-19T14:00:32.681Z,20.70
2018-06-19T14:03:08.021Z,20.70
2018-06-19T14:05:39.472Z,20.80
2018-06-19T14:08:07.386Z,20.80
2018-06-19T14:10:34.450Z,20.80
2018-06-19T14:13:02.243Z,20.80
2018-06-19T14:15:29.448Z,20.80
2018-06-19T14:17:56.499Z,20.80
2018-06-19T14:20:23.350Z,20.90
2018-06-19T14:22:50.113Z,20.90
2018-06-19T14:25:17.534Z,20.90
2018-06-19T14:27:44.398Z,20.90
2018-06-19T14:30:11.278Z,20.90
2018-06-19T14:35:05.365Z,20.90
2018-06-19T14:37:32.201Z,20.90
2018-06-19T14:39:59.199Z,21.00
2018-06-19T14:42:26.123Z,21.00
2018-06-19T14:44:52.933Z,21.00
2018-06-19T14:47:19.769Z,21.00
2018-06-19T14:49:46.644Z,21.00
2018-06-19T14:52:13.435Z,21.00
2018-06-19T14:54:40.224Z,21.00
2018-06-19T14:57:07.121Z,21.10
2018-06-19T14:59:33.929Z,21.10
2018-06-19T15:02:00.867Z,21.10
2018-06-19T15:04:27.760Z,20.80
2018-06-19T15:06:54.568Z,21.10
2018-06-19T15:09:21.359Z,21.10
2018-06-19T15:11:48.128Z,21.10
2018-06-19T15:14:14.929Z,21.20
2018-06-19T15:16:41.779Z,21.20
2018-06-19T15:19:08.634Z,21.20
2018-06-19T15:21:35.479Z,21.20
2018-06-19T15:24:02.293Z,21.30
2018-06-19T15:26:29.015Z,21.20
2018-06-19T15:28:55.752Z,21.30
2018-06-19T15:31:22.523Z,21.30
2018-06-19T15:33:49.393Z,21.30
2018-06-19T15:36:16.301Z,21.30
2018-06-19T15:38:43.155Z,21.30
2018-06-19T15:41:09.969Z,21.30
2018-06-19T15:43:36.894Z,21.30
2018-06-19T15:46:03.713Z,21.30
2018-06-19T15:48:30.442Z,21.40
2018-06-19T15:50:57.112Z,21.10
2018-06-19T15:53:23.792Z,21.30
2018-06-19T15:55:50.458Z,21.40
2018-06-19T15:58:17.142Z,21.40
2018-06-19T16:00:43.840Z,21.40
2018-06-19T16:03:10.530Z,21.40
2018-06-19T16:05:37.435Z,21.50
2018-06-19T16:08:09.587Z,21.40
2018-06-19T16:10:36.388Z,21.50
2018-06-19T16:13:03.236Z,21.50
2018-06-19T16:15:30.002Z,21.50
2018-06-19T16:17:56.770Z,21.50
2018-06-19T16:20:23.626Z,21.50
2018-06-19T16:22:50.542Z,21.50
2018-06-19T16:25:17.242Z,21.50
2018-06-19T16:27:44.141Z,21.60
2018-06-19T16:30:10.834Z,21.60
2018-06-19T16:32:37.612Z,21.60
2018-06-19T16:35:04.413Z,21.60
2018-06-19T16:37:31.319Z,21.60
2018-06-19T16:39:57.986Z,21.60
2018-06-19T16:42:24.792Z,21.60
2018-06-19T16:44:51.619Z,21.60
2018-06-19T16:47:18.333Z,21.60
2018-06-19T16:49:45.071Z,21.70
2018-06-19T16:52:11.891Z,21.70
2018-06-19T16:54:38.729Z,21.70
2018-06-19T16:57:05.607Z,21.70
2018-06-19T16:59:32.369Z,21.70
2018-06-19T17:01:59.151Z,21.80
2018-06-19T17:04:25.931Z,21.80
2018-06-19T17:06:52.731Z,21.70
2018-06-19T17:09:19.443Z,21.70
2018-06-19T17:11:46.293Z,21.80
2018-06-19T17:14:12.995Z,21.80
2018-06-19T17:16:39.773Z,21.80
2018-06-19T17:19:06.567Z,21.80
2018-06-19T17:21:33.327Z,21.80
2018-06-19T17:24:00.336Z,21.80
2018-06-19T17:26:27.153Z,21.80
2018-06-19T17:28:54.081Z,21.80
2018-06-19T17:31:20.851Z,21.80
2018-06-19T17:36:14.976Z,21.80
2018-06-19T17:38:41.787Z,21.80
2018-06-19T17:41:09.384Z,21.80
2018-06-19T17:43:36.095Z,21.80
2018-06-19T17:46:02.818Z,21.80
2018-06-19T17:48:29.802Z,21.80
2018-06-19T17:50:56.605Z,21.80
2018-06-19T17:53:24.380Z,21.80
2018-06-19T17:55:51.170Z,21.80
2018-06-19T17:58:17.933Z,21.80
2018-06-19T18:00:44.805Z,21.80
2018-06-19T18:03:11.578Z,21.80
2018-06-19T18:05:38.355Z,21.80
2018-06-19T18:08:05.608Z,21.80
2018-06-19T18:10:32.596Z,21.80
2018-06-19T18:12:59.324Z,21.80
2018-06-19T18:15:26.232Z,21.80
2018-06-19T18:17:52.962Z,21.80
2018-06-19T18:20:19.692Z,21.50
2018-06-19T18:22:46.442Z,21.80
2018-06-19T18:25:13.364Z,21.70
2018-06-19T18:27:40.163Z,21.80
2018-06-19T18:30:07.179Z,21.70
2018-06-19T18:32:34.109Z,21.70
2018-06-19T18:35:00.875Z,21.70
2018-06-19T18:37:27.650Z,21.70
2018-06-19T18:39:54.432Z,21.70
2018-06-19T18:42:21.319Z,21.70
2018-06-19T18:44:49.581Z,21.70
2018-06-19T18:47:16.396Z,21.70
2018-06-19T18:49:43.155Z,21.70
2018-06-19T18:52:09.950Z,21.70
2018-06-19T18:54:36.825Z,21.70
2018-06-19T18:57:03.527Z,21.70
2018-06-19T18:59:30.299Z,21.70
2018-06-19T19:01:57.043Z,21.70
2018-06-19T19:04:23.966Z,21.60
2018-06-19T19:06:50.754Z,21.80
2018-06-19T19:09:17.898Z,21.60
2018-06-19T19:11:44.705Z,21.60
2018-06-19T19:14:11.516Z,21.60
2018-06-19T19:16:43.832Z,21.60
2018-06-19T19:19:13.098Z,21.60
2018-06-19T19:21:40.032Z,21.60
2018-06-19T19:24:06.819Z,21.50
2018-06-19T19:26:39.133Z,21.50
2018-06-19T19:29:11.617Z,21.50
2018-06-19T19:31:38.495Z,21.50
2018-06-19T19:34:09.027Z,21.50
2018-06-19T19:36:42.155Z,21.50
2018-06-19T19:39:14.656Z,21.50
2018-06-19T19:44:10.257Z,21.50
2018-06-19T19:46:42.603Z,21.50
2018-06-19T19:51:36.723Z,21.40
2018-06-19T19:54:03.525Z,21.40
2018-06-19T19:56:35.790Z,21.20
2018-06-19T19:59:02.652Z,21.40
2018-06-19T20:01:29.416Z,21.40
2018-06-19T20:03:56.146Z,21.40
2018-06-19T20:06:23.288Z,21.30
2018-06-19T20:08:50.094Z,21.40
2018-06-19T20:11:16.859Z,21.40
2018-06-19T20:13:43.655Z,21.40
2018-06-19T20:16:10.454Z,21.30
2018-06-19T20:18:37.288Z,21.30
2018-06-19T20:21:04.040Z,21.30
2018-06-19T20:23:30.810Z,21.20
2018-06-19T20:25:57.604Z,21.30
2018-06-19T20:28:24.422Z,21.30
2018-06-19T20:30:51.237Z,21.30
2018-06-19T20:33:17.982Z,21.20
2018-06-19T20:35:44.824Z,21.20
2018-06-19T20:38:11.553Z,21.20
2018-06-19T20:40:38.361Z,21.20
2018-06-19T20:43:05.189Z,21.20
2018-06-19T20:45:32.025Z,21.10
2018-06-19T20:47:58.812Z,21.20
2018-06-19T20:50:25.612Z,21.10
2018-06-19T20:52:52.359Z,21.10
2018-06-19T20:55:19.075Z,21.10
2018-06-19T20:57:45.916Z,21.10
2018-06-19T21:00:12.642Z,21.10
2018-06-19T21:02:39.449Z,21.10
2018-06-19T21:05:06.323Z,21.00
2018-06-19T21:07:33.163Z,21.00
2018-06-19T21:09:59.919Z,21.00
2018-06-19T21:12:26.889Z,21.00
2018-06-19T21:17:20.850Z,20.90
2018-06-19T21:19:47.665Z,20.90
2018-06-19T21:22:14.454Z,20.90
2018-06-19T21:24:41.256Z,20.90
2018-06-19T21:27:08.038Z,20.90
2018-06-19T21:29:34.888Z,20.80
2018-06-19T21:32:01.748Z,20.80
2018-06-19T21:34:28.459Z,20.80
2018-06-19T21:36:55.188Z,20.80
2018-06-19T21:39:21.962Z,20.70
2018-06-19T21:41:48.784Z,20.70
2018-06-19T21:44:15.533Z,20.70
2018-06-19T21:46:42.322Z,20.70
2018-06-19T21:49:09.130Z,20.70
2018-06-19T21:51:35.824Z,20.70
2018-06-19T21:54:02.522Z,20.60
2018-06-19T21:56:29.276Z,20.60
2018-06-19T21:58:56.011Z,20.60
2018-06-19T22:01:22.706Z,20.60
2018-06-19T22:03:49.480Z,20.50
2018-06-19T22:06:16.235Z,20.50
2018-06-19T22:08:44.634Z,20.50
2018-06-19T22:11:11.797Z,20.50
2018-06-19T22:13:38.630Z,20.40
2018-06-19T22:16:05.401Z,20.40
2018-06-19T22:18:32.121Z,20.30
2018-06-19T22:20:58.915Z,20.40
2018-06-19T22:23:25.689Z,20.30
2018-06-19T22:25:52.571Z,20.30
2018-06-19T22:30:46.869Z,20.30
2018-06-19T22:33:13.636Z,20.30
2018-06-19T22:35:40.384Z,20.20
2018-06-19T22:38:07.230Z,20.20
2018-06-19T22:40:33.985Z,20.20
2018-06-19T22:43:00.719Z,20.10
2018-06-19T22:45:27.473Z,20.10
2018-06-19T22:47:54.142Z,20.10
2018-06-19T22:50:20.890Z,20.10
2018-06-19T22:52:47.649Z,20.10
2018-06-19T22:55:14.345Z,20.00
2018-06-19T22:57:41.122Z,19.80
2018-06-19T23:00:07.930Z,20.00
2018-06-19T23:02:34.638Z,20.00
2018-06-19T23:05:01.351Z,19.90
2018-06-19T23:07:28.090Z,19.90
2018-06-19T23:09:54.957Z,19.90
2018-06-19T23:12:21.678Z,19.90
2018-06-19T23:14:48.477Z,19.90
2018-06-19T23:17:15.698Z,19.80
2018-06-19T23:19:42.428Z,19.80
2018-06-19T23:22:09.196Z,19.80
2018-06-19T23:24:35.878Z,19.80
2018-06-19T23:27:04.012Z,19.70
2018-06-19T23:29:31.028Z,19.80
2018-06-19T23:31:57.962Z,19.70
2018-06-19T23:34:24.816Z,19.70
2018-06-19T23:36:51.533Z,19.70
2018-06-19T23:39:18.213Z,19.70
2018-06-19T23:41:44.993Z,19.70
2018-06-19T23:44:11.733Z,19.60
2018-06-19T23:46:38.485Z,19.60
2018-06-19T23:49:05.243Z,19.60
2018-06-19T23:51:32.084Z,19.60
2018-06-19T23:54:14.851Z,19.50
2018-06-19T23:56:41.683Z,19.50
2018-06-19T23:59:08.433Z,19.50
